Time;durP1;ratioP1;P1;durP2;ratioP2;P2;SDS_P1;SDS_P2;PMS_P1;PMS_P2;Temp;Humidity;BMP_temperature;BMP_pressure;BME280_temperature;BME280_humidity;BME280_pressure;Samples;Min_cycle;Max_cycle;Signal;HPM_P1;HPM_P2
2021/10/22 00:00:24;;;;;;;5.97;1.40;;;9.60;99.90;;;;;;5014556;28;20642;-83
2021/10/22 00:02:50;;;;;;;8.07;1.93;;;9.60;99.90;;;;;;5012654;28;20993;-83
2021/10/22 00:05:16;;;;;;;5.82;1.77;;;9.60;99.90;;;;;;5014287;28;20260;-83
2021/10/22 00:07:42;;;;;;;8.23;1.93;;;9.70;99.90;;;;;;4996988;28;20214;-83
2021/10/22 00:10:09;;;;;;;4.20;1.77;;;9.70;99.90;;;;;;5028843;28;21021;-83
2021/10/22 00:12:35;;;;;;;9.23;1.80;;;9.70;99.90;;;;;;5016468;28;20586;-83
2021/10/22 00:15:01;;;;;;;8.93;1.80;;;9.80;99.90;;;;;;5012724;28;20192;-83
2021/10/22 00:17:26;;;;;;;4.30;1.40;;;9.90;99.90;;;;;;5013022;28;20174;-83
2021/10/22 00:19:52;;;;;;;7.53;1.90;;;9.90;99.90;;;;;;5013950;28;20631;-83
2021/10/22 00:22:18;;;;;;;4.60;1.40;;;10.00;99.90;;;;;;5012535;28;20175;-83
2021/10/22 00:24:43;;;;;;;7.40;1.77;;;10.00;99.90;;;;;;5013970;28;20166;-84
2021/10/22 00:27:10;;;;;;;6.80;1.80;;;10.10;99.90;;;;;;5013991;28;20167;-83
2021/10/22 00:29:36;;;;;;;7.65;1.95;;;10.10;99.90;;;;;;5012572;28;20256;-83
2021/10/22 00:32:03;;;;;;;7.57;1.97;;;10.10;99.90;;;;;;5028962;28;20187;-83
2021/10/22 00:34:30;;;;;;;6.35;1.67;;;10.20;99.90;;;;;;5013505;28;20564;-83
2021/10/22 00:36:58;;;;;;;10.38;1.80;;;10.20;99.90;;;;;;5013699;28;20185;-83
2021/10/22 00:39:24;;;;;;;6.13;1.67;;;10.20;99.90;;;;;;5012513;28;20216;-83
2021/10/22 00:41:52;;;;;;;9.27;1.67;;;10.30;99.90;;;;;;5012390;28;20182;-83
2021/10/22 00:44:20;;;;;;;5.20;1.80;;;10.30;99.90;;;;;;5013390;28;20265;-83
2021/10/22 00:46:46;;;;;;;5.70;2.20;;;10.30;99.90;;;;;;5012263;28;20206;-83
2021/10/22 00:49:13;;;;;;;4.23;1.60;;;10.30;99.90;;;;;;5017567;28;20221;-83
2021/10/22 00:51:40;;;;;;;3.95;1.60;;;10.30;99.90;;;;;;5013423;28;20562;-83
2021/10/22 00:54:10;;;;;;;5.35;1.83;;;10.20;99.90;;;;;;5013273;28;20209;-82
2021/10/22 00:56:39;;;;;;;6.55;1.70;;;10.20;99.90;;;;;;5011865;28;20197;-82
2021/10/22 00:59:06;;;;;;;7.55;1.65;;;10.20;99.90;;;;;;5028678;28;20534;-82
2021/10/22 01:01:39;;;;;;;5.90;1.45;;;10.20;99.90;;;;;;5029564;28;20193;-82
2021/10/22 01:04:07;;;;;;;5.32;1.70;;;10.10;99.90;;;;;;5012905;28;20190;-82
2021/10/22 01:06:37;;;;;;;6.82;1.65;;;10.20;99.90;;;;;;4997507;28;20198;-82
2021/10/22 01:09:10;;;;;;;7.47;1.50;;;10.10;99.90;;;;;;5013972;28;20209;-82
2021/10/22 01:11:40;;;;;;;6.40;1.98;;;10.10;99.90;;;;;;5011734;28;20189;-82
2021/10/22 01:14:07;;;;;;;6.75;1.63;;;10.00;99.90;;;;;;5011733;28;20829;-82
2021/10/22 01:16:39;;;;;;;5.82;1.73;;;10.00;99.90;;;;;;5013375;28;20193;-82
2021/10/22 01:19:05;;;;;;;6.47;1.40;;;9.90;99.90;;;;;;5012795;28;20170;-81
2021/10/22 01:21:34;;;;;;;5.70;1.55;;;9.90;99.90;;;;;;5011819;28;20170;-82
2021/10/22 01:24:03;;;;;;;3.58;1.27;;;9.80;99.90;;;;;;5012540;28;20561;-77
2021/10/22 01:26:29;;;;;;;7.40;1.90;;;9.80;99.90;;;;;;5018745;28;20225;-77
2021/10/22 01:28:55;;;;;;;5.85;1.40;;;9.80;99.90;;;;;;5012974;28;20613;-77
2021/10/22 01:31:24;;;;;;;6.17;1.67;;;9.70;99.90;;;;;;5028129;28;20181;-77
2021/10/22 01:33:49;;;;;;;3.65;1.13;;;9.70;99.90;;;;;;5012346;28;20652;-77
2021/10/22 01:36:16;;;;;;;5.13;1.57;;;9.70;99.90;;;;;;5011430;28;20286;-77
2021/10/22 01:38:41;;;;;;;3.42;1.15;;;9.60;99.90;;;;;;5012469;28;20211;-77
2021/10/22 01:41:08;;;;;;;6.70;1.17;;;9.60;99.90;;;;;;5012641;28;20661;-77
2021/10/22 01:43:39;;;;;;;5.80;1.40;;;9.60;99.90;;;;;;5011006;28;20174;-76
2021/10/22 01:46:05;;;;;;;6.18;1.35;;;9.60;99.90;;;;;;5012327;28;20206;-77
2021/10/22 01:48:31;;;;;;;9.27;1.80;;;9.50;99.90;;;;;;5027518;28;20194;-77
2021/10/22 01:50:56;;;;;;;6.23;1.30;;;9.50;99.90;;;;;;5011276;28;20592;-77
2021/10/22 01:53:24;;;;;;;6.65;1.60;;;9.50;99.90;;;;;;5012201;28;20175;-77
2021/10/22 01:55:51;;;;;;;6.57;1.20;;;9.40;99.90;;;;;;5012177;28;20270;-77
2021/10/22 01:58:17;;;;;;;6.93;2.13;;;9.40;99.90;;;;;;5012878;28;20171;-77
2021/10/22 02:00:44;;;;;;;4.60;1.20;;;9.40;99.90;;;;;;5012950;28;20197;-77
2021/10/22 02:03:09;;;;;;;6.45;1.30;;;9.40;99.90;;;;;;5014397;28;20221;-77
2021/10/22 02:05:35;;;;;;;4.57;1.50;;;9.40;99.90;;;;;;5012168;28;20595;-77
2021/10/22 02:08:02;;;;;;;7.38;1.60;;;9.30;99.90;;;;;;5010821;28;20501;-77
2021/10/22 02:10:27;;;;;;;5.05;1.10;;;9.30;99.90;;;;;;5012046;28;20245;-77
2021/10/22 02:12:53;;;;;;;8.77;1.50;;;9.30;99.90;;;;;;5010702;28;20262;-77
2021/10/22 02:15:19;;;;;;;5.03;1.50;;;9.30;99.90;;;;;;5010665;28;20194;-77
2021/10/22 02:17:45;;;;;;;8.90;2.00;;;9.20;99.90;;;;;;5027136;28;20185;-77
2021/10/22 02:20:12;;;;;;;7.47;1.92;;;9.20;99.90;;;;;;5012027;28;20636;-77
2021/10/22 02:22:38;;;;;;;9.13;1.33;;;9.20;99.90;;;;;;5011739;28;20190;-77
2021/10/22 02:25:05;;;;;;;7.33;1.50;;;9.20;99.90;;;;;;5010695;28;20593;-77
2021/10/22 02:27:30;;;;;;;7.55;1.80;;;9.20;99.90;;;;;;5011666;28;20174;-77
2021/10/22 02:29:56;;;;;;;6.83;1.50;;;9.10;99.90;;;;;;5011857;28;20248;-77
2021/10/22 02:32:22;;;;;;;7.60;1.97;;;9.10;99.90;;;;;;5010688;28;20558;-77
2021/10/22 02:34:48;;;;;;;7.63;1.83;;;9.10;99.90;;;;;;5011935;28;20593;-77
2021/10/22 02:37:14;;;;;;;7.20;1.43;;;9.10;99.90;;;;;;5011808;28;20566;-77
2021/10/22 02:39:40;;;;;;;6.25;1.63;;;9.10;99.90;;;;;;5013828;28;20186;-77
2021/10/22 02:42:06;;;;;;;6.10;1.83;;;9.10;99.90;;;;;;5026532;28;20285;-77
2021/10/22 02:44:33;;;;;;;4.68;1.60;;;9.00;99.90;;;;;;5011793;28;20570;-77
2021/10/22 02:46:59;;;;;;;6.60;1.48;;;9.00;99.90;;;;;;5011597;28;20182;-77
2021/10/22 02:49:24;;;;;;;6.90;1.90;;;9.00;99.90;;;;;;5011713;28;20621;-77
2021/10/22 02:51:52;;;;;;;7.40;1.47;;;9.00;99.90;;;;;;5010603;28;20285;-77
2021/10/22 02:54:18;;;;;;;4.97;1.45;;;8.90;99.90;;;;;;5026854;28;20562;-77
2021/10/22 02:56:44;;;;;;;5.90;1.50;;;9.00;99.90;;;;;;5011633;28;20228;-77
2021/10/22 02:59:10;;;;;;;5.20;2.23;;;8.90;99.90;;;;;;5026590;28;20514;-77
2021/10/22 03:01:35;;;;;;;6.50;2.07;;;8.90;99.90;;;;;;5011654;28;20743;-77
2021/10/22 03:04:01;;;;;;;7.93;1.60;;;8.90;99.90;;;;;;5011254;28;20174;-77
2021/10/22 03:06:27;;;;;;;5.83;1.30;;;8.90;99.90;;;;;;5011531;28;20198;-77
2021/10/22 03:08:53;;;;;;;8.95;1.40;;;8.90;99.90;;;;;;5011274;28;20202;-77
2021/10/22 03:11:18;;;;;;;7.80;1.67;;;8.80;99.90;;;;;;5011686;28;20177;-77
2021/10/22 03:13:44;;;;;;;6.43;1.73;;;8.80;99.90;;;;;;5010715;28;20178;-77
2021/10/22 03:16:10;;;;;;;5.07;1.10;;;8.80;99.90;;;;;;5014730;28;20257;-77
2021/10/22 03:18:36;;;;;;;5.03;1.37;;;8.80;99.90;;;;;;5011256;28;20174;-76
2021/10/22 03:21:01;;;;;;;6.30;1.20;;;8.80;99.90;;;;;;5011529;28;21121;-76
2021/10/22 03:23:29;;;;;;;6.93;1.30;;;8.80;99.90;;;;;;5011138;28;20182;-77
2021/10/22 03:25:55;;;;;;;4.40;1.93;;;8.70;99.90;;;;;;5010083;28;20547;-77
2021/10/22 03:28:21;;;;;;;8.38;1.25;;;8.70;99.90;;;;;;5011779;28;20780;-77
2021/10/22 03:30:47;;;;;;;4.47;1.20;;;8.70;99.90;;;;;;5011144;28;20171;-77
2021/10/22 03:33:13;;;;;;;4.13;1.20;;;8.70;99.90;;;;;;5009601;28;20174;-77
2021/10/22 03:35:39;;;;;;;8.48;1.75;;;8.70;99.90;;;;;;5011146;28;20190;-77
2021/10/22 03:38:04;;;;;;;6.70;1.50;;;8.70;99.90;;;;;;5011208;28;20170;-77
2021/10/22 03:40:30;;;;;;;9.33;1.70;;;8.70;99.90;;;;;;5011128;28;20179;-77
2021/10/22 03:42:57;;;;;;;7.50;1.50;;;8.60;99.90;;;;;;5011079;28;20663;-77
2021/10/22 03:45:25;;;;;;;3.88;1.38;;;8.60;99.90;;;;;;5012384;28;20656;-77
2021/10/22 03:47:55;;;;;;;6.13;1.13;;;8.60;99.90;;;;;;5015236;28;20253;-77
2021/10/22 03:50:22;;;;;;;6.22;1.40;;;8.60;99.90;;;;;;5013422;28;20202;-77
2021/10/22 03:52:48;;;;;;;9.23;1.80;;;8.60;99.90;;;;;;5016460;28;20514;-77
2021/10/22 03:55:15;;;;;;;4.30;1.70;;;8.60;99.90;;;;;;5013634;28;20182;-77
2021/10/22 03:57:41;;;;;;;4.45;1.85;;;8.50;99.90;;;;;;5014312;28;20201;-76
2021/10/22 04:00:08;;;;;;;4.50;1.20;;;8.50;99.90;;;;;;5013442;28;20170;-77
2021/10/22 04:02:40;;;;;;;5.40;1.38;;;8.50;99.90;;;;;;5013926;28;20182;-77
2021/10/22 04:05:08;;;;;;;7.53;1.60;;;8.50;99.90;;;;;;5012924;28;20205;-77
2021/10/22 04:07:35;;;;;;;6.55;2.15;;;8.50;99.90;;;;;;5014031;28;20609;-77
2021/10/22 04:10:05;;;;;;;7.25;2.00;;;8.40;99.90;;;;;;5013835;28;20206;-77
2021/10/22 04:12:31;;;;;;;4.13;1.55;;;8.40;99.90;;;;;;5004814;28;20167;-77
2021/10/22 04:14:57;;;;;;;8.98;2.10;;;8.40;99.90;;;;;;5014149;28;20190;-77
2021/10/22 04:17:23;;;;;;;5.20;1.87;;;8.40;99.90;;;;;;5013949;28;20162;-77
2021/10/22 04:19:49;;;;;;;9.07;1.60;;;8.40;99.90;;;;;;5014173;28;20976;-77
2021/10/22 04:22:15;;;;;;;9.27;2.53;;;8.30;99.90;;;;;;5013113;28;20599;-77
2021/10/22 04:24:40;;;;;;;11.37;1.43;;;8.30;99.90;;;;;;5012729;28;20181;-77
2021/10/22 04:27:06;;;;;;;4.07;1.13;;;8.30;99.90;;;;;;5013822;28;20725;-77
2021/10/22 04:29:32;;;;;;;6.13;2.00;;;8.30;99.90;;;;;;5013992;28;20252;-77
2021/10/22 04:31:58;;;;;;;3.22;1.90;;;8.30;99.90;;;;;;5015242;28;20213;-77
2021/10/22 04:34:26;;;;;;;7.00;1.65;;;8.30;99.90;;;;;;5012381;28;20177;-77
2021/10/22 04:36:52;;;;;;;7.50;1.83;;;8.20;99.90;;;;;;5013755;28;20325;-77
2021/10/22 04:42:05;;;;;;;7.63;2.00;;;8.20;99.90;;;;;;5013563;28;20514;-77
2021/10/22 04:44:31;;;;;;;4.43;1.23;;;8.20;99.90;;;;;;5011852;28;20185;-78
2021/10/22 04:46:57;;;;;;;5.10;1.60;;;8.20;99.90;;;;;;5013721;28;20209;-77
2021/10/22 04:49:23;;;;;;;7.63;1.25;;;8.20;99.90;;;;;;5013294;28;20198;-76
2021/10/22 04:51:49;;;;;;;6.30;2.53;;;8.10;99.90;;;;;;5013657;28;20627;-77
2021/10/22 04:54:14;;;;;;;4.20;1.40;;;8.10;99.90;;;;;;5012851;28;20221;-77
2021/10/22 04:56:40;;;;;;;4.40;1.17;;;8.10;99.90;;;;;;5012949;28;20650;-76
2021/10/22 04:59:06;;;;;;;4.10;1.60;;;8.10;99.90;;;;;;5011627;28;20249;-77
2021/10/22 05:01:31;;;;;;;7.27;2.07;;;8.10;99.90;;;;;;5013404;28;20182;-77
2021/10/22 05:03:57;;;;;;;7.53;1.70;;;8.10;99.90;;;;;;5012616;28;20558;-77
2021/10/22 05:06:23;;;;;;;9.83;2.17;;;8.10;99.90;;;;;;5013299;28;20210;-78
2021/10/22 05:08:48;;;;;;;12.83;2.53;;;8.10;99.90;;;;;;5015486;28;20628;-77
2021/10/22 05:11:14;;;;;;;4.43;1.90;;;8.10;99.90;;;;;;5011901;28;20514;-77
2021/10/22 05:13:40;;;;;;;7.37;2.10;;;8.10;99.90;;;;;;5012843;28;20182;-77
2021/10/22 05:16:06;;;;;;;6.97;1.57;;;8.20;99.90;;;;;;5012761;28;20194;-77
2021/10/22 05:18:32;;;;;;;6.97;1.83;;;8.20;99.90;;;;;;5013017;28;20189;-77
2021/10/22 05:20:57;;;;;;;3.45;1.55;;;8.10;99.90;;;;;;5012870;28;20914;-77
2021/10/22 05:23:24;;;;;;;4.80;1.70;;;8.20;99.90;;;;;;5012537;28;20261;-77
2021/10/22 05:25:50;;;;;;;4.22;1.40;;;8.20;99.90;;;;;;5012899;28;20201;-77
2021/10/22 05:28:16;;;;;;;5.28;1.45;;;8.20;99.90;;;;;;5012726;28;20174;-77
2021/10/22 05:30:42;;;;;;;4.60;1.38;;;8.20;99.90;;;;;;5011651;28;20177;-77
2021/10/22 05:33:10;;;;;;;9.73;1.83;;;8.20;99.90;;;;;;5012084;28;21477;-77
2021/10/22 05:35:35;;;;;;;7.93;1.98;;;8.20;99.90;;;;;;5012039;28;20667;-77
2021/10/22 05:38:01;;;;;;;8.20;1.93;;;8.30;99.90;;;;;;5010999;28;20174;-77
2021/10/22 05:40:27;;;;;;;8.05;1.73;;;8.30;99.90;;;;;;5011498;28;20702;-77
2021/10/22 05:42:53;;;;;;;2.80;1.10;;;8.30;99.90;;;;;;5012099;28;20309;-77
2021/10/22 05:45:18;;;;;;;3.23;1.33;;;8.40;99.90;;;;;;5014436;28;20686;-77
2021/10/22 05:47:44;;;;;;;3.40;1.43;;;8.40;99.90;;;;;;5011631;28;20591;-77
2021/10/22 05:50:10;;;;;;;4.93;1.42;;;8.50;99.90;;;;;;5010467;28;20207;-76
2021/10/22 05:52:36;;;;;;;8.37;2.60;;;8.50;99.90;;;;;;5011482;28;20170;-77
2021/10/22 05:55:02;;;;;;;3.80;1.20;;;8.50;99.90;;;;;;5011778;28;20197;-77
2021/10/22 05:57:28;;;;;;;2.77;1.50;;;8.50;99.90;;;;;;5011502;28;20569;-77
2021/10/22 05:59:53;;;;;;;5.90;1.73;;;8.60;99.90;;;;;;5012220;28;20939;-77
2021/10/22 06:02:19;;;;;;;5.97;2.30;;;8.60;99.90;;;;;;5011467;28;20186;-77
2021/10/22 06:04:45;;;;;;;4.23;1.60;;;8.60;99.90;;;;;;5011978;28;20189;-76
2021/10/22 06:07:11;;;;;;;8.77;1.50;;;8.60;99.90;;;;;;5011350;28;20180;-76
2021/10/22 06:09:37;;;;;;;4.43;1.50;;;8.70;99.90;;;;;;5011567;28;20198;-77
2021/10/22 06:12:02;;;;;;;7.30;1.90;;;8.70;99.90;;;;;;5011720;28;20227;-77
2021/10/22 06:14:28;;;;;;;5.53;2.10;;;8.70;99.90;;;;;;5011881;28;20262;-77
2021/10/22 06:16:55;;;;;;;2.50;1.37;;;8.70;99.90;;;;;;5012268;28;20597;-76
2021/10/22 06:19:25;;;;;;;5.45;1.40;;;8.70;99.90;;;;;;5011152;28;20170;-77
2021/10/22 06:24:32;;;;;;;4.78;1.80;;;8.80;99.90;;;;;;5011596;28;20181;-77
2021/10/22 06:26:58;;;;;;;3.75;1.33;;;8.80;99.90;;;;;;5011714;28;20300;-77
2021/10/22 06:29:24;;;;;;;7.10;1.80;;;8.80;99.90;;;;;;5011596;28;20288;-77
2021/10/22 06:31:49;;;;;;;7.87;2.27;;;8.90;99.90;;;;;;5010448;28;20173;-77
2021/10/22 06:34:15;;;;;;;3.93;1.70;;;8.90;99.90;;;;;;5011046;28;20578;-78
2021/10/22 06:36:40;;;;;;;3.93;1.20;;;8.90;99.90;;;;;;5011558;28;20190;-77
2021/10/22 06:39:06;;;;;;;7.47;1.87;;;8.90;99.90;;;;;;5011403;28;20259;-77
2021/10/22 06:41:34;;;;;;;5.13;2.25;;;8.90;99.90;;;;;;5011264;28;20185;-77
2021/10/22 06:44:02;;;;;;;5.88;1.35;;;9.00;99.90;;;;;;5010865;28;20208;-77
2021/10/22 06:46:28;;;;;;;4.47;1.43;;;9.00;99.90;;;;;;5009735;28;20293;-78
2021/10/22 06:48:54;;;;;;;5.53;1.20;;;9.00;99.90;;;;;;5011575;28;20614;-77
2021/10/22 06:51:21;;;;;;;3.53;1.15;;;9.10;99.90;;;;;;5010878;28;20217;-77
2021/10/22 06:53:47;;;;;;;7.57;1.70;;;9.10;99.90;;;;;;5011419;28;20181;-77
2021/10/22 06:56:14;;;;;;;6.88;1.00;;;9.10;99.90;;;;;;5011046;28;20186;-77
2021/10/22 06:58:40;;;;;;;2.78;1.10;;;9.20;99.90;;;;;;5013650;28;20248;-77
2021/10/22 07:01:06;;;;;;;5.10;1.20;;;9.20;99.90;;;;;;5010814;28;20175;-77
2021/10/22 07:03:39;;;;;;;4.93;1.40;;;9.20;99.90;;;;;;4997663;28;20179;-77
2021/10/22 07:08:54;;;;;;;2.67;1.00;;;9.30;99.90;;;;;;5012415;28;20201;-77
2021/10/22 07:11:21;;;;;;;7.13;2.05;;;9.30;99.90;;;;;;5013319;28;20163;-78
2021/10/22 07:13:53;;;;;;;6.00;1.23;;;9.40;99.90;;;;;;5013163;28;20178;-77
2021/10/22 07:16:19;;;;;;;4.68;1.33;;;9.40;99.90;;;;;;5011002;28;20229;-77
2021/10/22 07:18:46;;;;;;;6.28;2.15;;;9.50;99.90;;;;;;5013054;28;20170;-77
2021/10/22 07:21:14;;;;;;;5.35;1.20;;;9.50;99.90;;;;;;5014859;28;20201;-78
2021/10/22 07:23:42;;;;;;;7.22;1.42;;;9.60;99.90;;;;;;5014676;28;20166;-77
2021/10/22 07:26:08;;;;;;;5.53;1.10;;;9.60;99.90;;;;;;5029998;28;20248;-77
2021/10/22 07:28:34;;;;;;;3.58;1.65;;;9.60;99.90;;;;;;5014859;28;20611;-77
2021/10/22 07:31:00;;;;;;;4.37;1.10;;;9.70;99.90;;;;;;5015043;28;20173;-77
2021/10/22 07:33:27;;;;;;;3.05;1.00;;;9.70;99.90;;;;;;5014530;28;21448;-77
2021/10/22 07:35:55;;;;;;;3.05;1.13;;;9.80;99.90;;;;;;5015314;28;20241;-77
2021/10/22 07:38:21;;;;;;;11.60;1.77;;;9.80;99.90;;;;;;5014828;28;20167;-77
2021/10/22 07:40:47;;;;;;;2.37;0.90;;;9.90;99.90;;;;;;5014519;28;20213;-77
2021/10/22 07:43:14;;;;;;;3.50;1.33;;;10.00;99.90;;;;;;5014889;28;20609;-77
2021/10/22 07:45:41;;;;;;;3.53;1.55;;;10.10;99.90;;;;;;5014673;28;20623;-77
2021/10/22 07:48:07;;;;;;;5.55;1.30;;;10.10;99.90;;;;;;5015454;28;20167;-76
2021/10/22 07:50:33;;;;;;;7.15;1.65;;;10.20;99.90;;;;;;5014363;28;20202;-76
2021/10/22 07:52:59;;;;;;;6.40;1.13;;;10.30;99.90;;;;;;5013048;28;20171;-76
2021/10/22 07:55:25;;;;;;;4.90;1.10;;;10.40;99.90;;;;;;5014314;28;20187;-76
2021/10/22 07:57:51;;;;;;;3.23;1.20;;;10.50;99.90;;;;;;5014822;28;20171;-76
2021/10/22 08:00:16;;;;;;;4.35;1.33;;;10.60;99.90;;;;;;5013207;28;20980;-76
2021/10/22 08:02:42;;;;;;;4.87;1.10;;;10.80;99.90;;;;;;5014976;28;20178;-76
2021/10/22 08:05:12;;;;;;;4.63;1.60;;;11.00;99.90;;;;;;5013201;28;20202;-75
2021/10/22 08:07:38;;;;;;;10.13;1.00;;;11.10;99.90;;;;;;5014104;28;20170;-76
2021/10/22 08:10:06;;;;;;;3.40;1.00;;;11.30;99.90;;;;;;5014554;28;20206;-76
2021/10/22 08:12:33;;;;;;;3.17;0.90;;;11.40;99.90;;;;;;5013974;28;20549;-76
2021/10/22 08:14:59;;;;;;;5.55;1.30;;;11.50;99.90;;;;;;5015612;28;20179;-76
2021/10/22 08:17:25;;;;;;;8.88;2.15;;;11.60;99.90;;;;;;5015181;28;20214;-76
2021/10/22 08:20:15;;;;;;;4.85;1.27;;;11.90;99.90;;;;;;5014997;28;20170;-75
2021/10/22 08:22:41;;;;;;;2.85;1.00;;;12.10;99.90;;;;;;5013587;28;20564;-75
2021/10/22 08:25:12;;;;;;;8.30;1.57;;;12.70;99.90;;;;;;5017227;28;20190;-76
2021/10/22 08:27:41;;;;;;;4.93;0.97;;;13.40;99.90;;;;;;5017130;28;20562;-77
2021/10/22 08:30:10;;;;;;;6.90;1.40;;;14.20;99.90;;;;;;5023888;28;21024;-77
2021/10/22 08:32:36;;;;;;;5.90;1.07;;;15.10;99.90;;;;;;5021611;28;20542;-77
2021/10/22 08:35:05;;;;;;;5.50;1.53;;;15.80;99.90;;;;;;5022313;28;20632;-77
2021/10/22 08:37:32;;;;;;;2.70;0.80;;;16.60;99.90;;;;;;5027301;28;20557;-77
2021/10/22 08:39:57;;;;;;;5.50;1.33;;;17.20;99.90;;;;;;5021656;28;20562;-77
2021/10/22 08:42:25;;;;;;;3.90;0.90;;;17.40;99.90;;;;;;5020297;28;20582;-77
2021/10/22 08:44:52;;;;;;;5.73;1.00;;;17.50;99.90;;;;;;5021260;28;20217;-77
2021/10/22 08:47:32;;;;;;;2.50;0.90;;;17.40;99.90;;;;;;5022006;28;20596;-77
2021/10/22 08:50:00;;;;;;;4.40;1.40;;;17.90;99.90;;;;;;5019823;28;20691;-77
2021/10/22 08:52:28;;;;;;;5.40;0.90;;;18.20;99.90;;;;;;5025779;28;20573;-77
2021/10/22 08:54:58;;;;;;;2.63;0.90;;;18.80;99.90;;;;;;5018105;28;20609;-77
2021/10/22 08:57:24;;;;;;;3.73;0.90;;;19.20;99.90;;;;;;5022214;28;20637;-77
2021/10/22 08:59:52;;;;;;;4.90;0.90;;;19.50;99.90;;;;;;5033216;28;20573;-77
2021/10/22 09:02:24;;;;;;;3.90;1.20;;;20.00;99.90;;;;;;5028012;28;20248;-78
2021/10/22 09:04:51;;;;;;;3.70;1.10;;;20.40;99.90;;;;;;5018607;28;20601;-78
2021/10/22 09:07:19;;;;;;;5.87;1.13;;;20.80;99.90;;;;;;5015217;28;20676;-77
2021/10/22 09:09:46;;;;;;;5.90;1.60;;;21.10;99.90;;;;;;5016585;28;20644;-78
2021/10/22 09:12:13;;;;;;;2.03;0.70;;;21.40;99.90;;;;;;5017881;28;20612;-77
2021/10/22 09:14:59;;;;;;;2.67;1.00;;;21.40;99.90;;;;;;5021827;28;20604;-77
2021/10/22 09:17:38;;;;;;;3.20;0.73;;;21.50;99.90;;;;;;5022835;28;20581;-78
2021/10/22 09:20:07;;;;;;;5.60;0.90;;;21.20;99.90;;;;;;5029802;28;20646;-77
2021/10/22 09:22:34;;;;;;;4.83;1.00;;;20.80;99.90;;;;;;5030715;28;20566;-78
2021/10/22 09:25:07;;;;;;;4.33;1.23;;;20.20;99.90;;;;;;5021661;28;20625;-77
2021/10/22 09:27:48;;;;;;;3.70;1.30;;;19.60;99.10;;;;;;5034306;28;20604;-77
2021/10/22 09:30:23;;;;;;;3.07;1.10;;;19.10;98.00;;;;;;5021712;28;20636;-77
2021/10/22 09:32:50;;;;;;;2.97;1.00;;;18.50;98.60;;;;;;5022962;28;20577;-77
2021/10/22 09:35:33;;;;;;;2.00;0.97;;;17.90;99.30;;;;;;5034905;28;20590;-77
2021/10/22 09:38:15;;;;;;;4.37;1.40;;;17.50;99.10;;;;;;5028363;28;20561;-77
2021/10/22 09:40:56;;;;;;;8.00;1.97;;;17.20;99.90;;;;;;5027082;28;20577;-78
2021/10/22 09:43:24;;;;;;;3.47;1.20;;;17.20;99.90;;;;;;5024121;28;20573;-78
2021/10/22 09:46:05;;;;;;;4.37;1.37;;;17.10;99.90;;;;;;5029975;28;20617;-78
2021/10/22 09:48:32;;;;;;;3.73;1.20;;;16.80;99.90;;;;;;5028617;28;20573;-78
2021/10/22 09:51:24;;;;;;;4.57;1.10;;;16.50;99.90;;;;;;5025073;28;21137;-78
2021/10/22 09:53:50;;;;;;;4.37;1.00;;;16.20;99.90;;;;;;5024783;28;20573;-78
2021/10/22 09:56:30;;;;;;;3.60;1.00;;;16.00;99.90;;;;;;5024355;28;20606;-78
2021/10/22 09:59:04;;;;;;;4.73;0.90;;;16.30;99.90;;;;;;5044946;28;20637;-78
2021/10/22 10:01:47;;;;;;;3.57;1.33;;;16.70;99.90;;;;;;5026895;28;20663;-78
2021/10/22 10:04:14;;;;;;;3.93;1.10;;;17.20;99.90;;;;;;5027036;28;20577;-78
2021/10/22 10:06:43;;;;;;;5.23;1.10;;;17.50;99.90;;;;;;5024107;28;21004;-77
2021/10/22 10:09:10;;;;;;;4.40;1.03;;;17.60;99.90;;;;;;5030623;28;20625;-77
2021/10/22 10:11:41;;;;;;;6.00;1.77;;;17.70;99.90;;;;;;5030259;28;20609;-78
2021/10/22 10:14:12;;;;;;;3.40;0.80;;;17.90;99.90;;;;;;5027862;28;20569;-79
2021/10/22 10:16:39;;;;;;;4.00;1.03;;;18.10;99.90;;;;;;5027140;28;20600;-77
2021/10/22 10:19:10;;;;;;;3.97;1.60;;;18.30;99.90;;;;;;5029703;28;20993;-77
2021/10/22 10:21:47;;;;;;;2.90;1.43;;;18.30;99.90;;;;;;5030055;28;20570;-77
2021/10/22 10:24:16;;;;;;;4.10;1.00;;;18.20;99.90;;;;;;5030544;28;20652;-77
2021/10/22 10:26:42;;;;;;;7.40;2.03;;;18.00;99.90;;;;;;5029113;28;20589;-77
2021/10/22 10:29:10;;;;;;;3.10;1.33;;;17.80;99.90;;;;;;5030422;28;20642;-78
2021/10/22 10:31:40;;;;;;;5.37;1.30;;;17.50;99.90;;;;;;5030549;28;20186;-77
2021/10/22 10:34:30;;;;;;;4.93;1.80;;;17.20;99.90;;;;;;5030016;28;20932;-77
2021/10/22 10:37:04;;;;;;;5.77;1.90;;;16.90;99.20;;;;;;5028172;28;20577;-77
2021/10/22 10:39:45;;;;;;;3.57;0.90;;;16.60;99.90;;;;;;5023240;28;20587;-77
2021/10/22 10:42:18;;;;;;;4.93;1.50;;;16.40;99.90;;;;;;5025881;28;20565;-77
2021/10/22 10:44:45;;;;;;;5.20;0.90;;;16.50;99.90;;;;;;5026438;28;20953;-77
2021/10/22 10:47:26;;;;;;;5.43;1.77;;;16.70;99.90;;;;;;5023355;28;20956;-77
2021/10/22 10:49:51;;;;;;;4.07;1.30;;;17.20;99.90;;;;;;5017913;28;20636;-77
2021/10/22 10:52:36;;;;;;;4.60;1.03;;;17.60;99.90;;;;;;5013865;28;20565;-76
2021/10/22 10:55:27;;;;;;;3.53;1.00;;;17.90;99.90;;;;;;5019282;28;20178;-77
2021/10/22 10:57:54;;;;;;;4.73;1.20;;;18.20;99.90;;;;;;5020459;28;20903;-77
2021/10/22 11:00:33;;;;;;;3.90;1.20;;;18.20;99.90;;;;;;5019699;28;20651;-76
2021/10/22 11:03:02;;;;;;;2.60;0.90;;;18.20;99.90;;;;;;5018252;28;20731;-77
2021/10/22 11:05:46;;;;;;;3.10;1.00;;;18.10;99.90;;;;;;5017211;28;20596;-76
2021/10/22 11:08:24;;;;;;;4.50;0.97;;;18.00;99.40;;;;;;5021797;28;20588;-77
2021/10/22 11:11:09;;;;;;;4.50;1.30;;;18.10;99.90;;;;;;5019115;28;20576;-77
2021/10/22 11:13:50;;;;;;;3.40;1.80;;;18.00;99.60;;;;;;5018667;28;20565;-78
2021/10/22 11:16:22;;;;;;;3.77;0.90;;;18.00;99.70;;;;;;5018762;28;20599;-77
2021/10/22 11:19:04;;;;;;;4.97;1.00;;;18.00;99.40;;;;;;5030990;28;20600;-78
2021/10/22 11:21:32;;;;;;;5.00;1.00;;;17.80;99.40;;;;;;5024176;28;20573;-78
2021/10/22 11:24:00;;;;;;;6.10;2.03;;;17.70;99.50;;;;;;5018155;28;20744;-77
2021/10/22 11:26:27;;;;;;;4.33;1.13;;;17.60;99.60;;;;;;5015031;28;21155;-78
2021/10/22 11:28:55;;;;;;;3.73;0.90;;;17.60;99.90;;;;;;5022621;28;20624;-78
2021/10/22 11:31:40;;;;;;;2.73;1.10;;;17.50;99.50;;;;;;5039912;28;20600;-78
2021/10/22 11:34:12;;;;;;;4.00;1.10;;;17.40;99.00;;;;;;5023513;28;20619;-78
2021/10/22 11:36:39;;;;;;;5.97;0.87;;;17.50;99.70;;;;;;5027520;28;20604;-78
2021/10/22 11:39:26;;;;;;;3.70;1.10;;;17.50;99.60;;;;;;5022998;28;20974;-77
2021/10/22 11:42:16;;;;;;;6.10;0.90;;;17.50;99.50;;;;;;5014003;28;20635;-77
2021/10/22 11:44:50;;;;;;;5.17;1.00;;;17.50;98.20;;;;;;5014953;28;20580;-77
2021/10/22 11:47:21;;;;;;;3.00;1.13;;;17.40;98.20;;;;;;5013765;28;20611;-77
2021/10/22 11:49:47;;;;;;;3.53;0.93;;;17.30;98.20;;;;;;5014645;28;20633;-77
2021/10/22 11:52:16;;;;;;;2.87;1.00;;;17.20;98.60;;;;;;5012384;28;21172;-77
2021/10/22 11:54:46;;;;;;;1.93;0.80;;;17.20;98.70;;;;;;5016534;28;20577;-77
2021/10/22 11:57:16;;;;;;;4.00;0.90;;;17.20;98.80;;;;;;5015620;28;20625;-77
2021/10/22 11:59:48;;;;;;;2.30;1.03;;;17.20;98.70;;;;;;5023322;28;20581;-78
2021/10/22 12:02:15;;;;;;;9.43;2.17;;;17.10;98.70;;;;;;5011754;28;20601;-77
2021/10/22 12:04:42;;;;;;;2.93;0.70;;;17.10;98.90;;;;;;5012085;28;20647;-78
2021/10/22 12:07:10;;;;;;;3.40;1.30;;;17.10;98.60;;;;;;5013721;28;20585;-77
2021/10/22 12:09:40;;;;;;;4.47;2.10;;;17.00;98.60;;;;;;5012532;28;20715;-77
2021/10/22 12:12:16;;;;;;;4.73;1.00;;;17.00;98.80;;;;;;5013764;28;20554;-77
2021/10/22 12:14:44;;;;;;;3.10;1.73;;;16.90;98.40;;;;;;5013343;28;20647;-78
2021/10/22 12:17:14;;;;;;;7.70;1.00;;;16.80;98.40;;;;;;5012557;28;20572;-77
2021/10/22 12:19:42;;;;;;;4.93;1.63;;;16.60;98.50;;;;;;5012168;28;20600;-79
2021/10/22 12:22:08;;;;;;;3.20;1.10;;;16.50;98.60;;;;;;5013675;28;20616;-80
2021/10/22 12:25:04;;;;;;;6.00;1.63;;;16.40;98.80;;;;;;5014852;28;20930;-79
2021/10/22 12:27:31;;;;;;;8.93;1.50;;;16.40;98.40;;;;;;5011555;28;20593;-77
2021/10/22 12:30:08;;;;;;;2.60;1.33;;;16.20;98.90;;;;;;5012104;28;20633;-77
2021/10/22 12:32:36;;;;;;;3.10;0.90;;;16.10;99.00;;;;;;5025778;28;20581;-77
2021/10/22 12:35:04;;;;;;;4.23;1.80;;;16.00;99.00;;;;;;5016109;28;20600;-81
2021/10/22 12:37:32;;;;;;;4.93;1.40;;;16.00;99.30;;;;;;5013569;28;20569;-81
2021/10/22 12:39:58;;;;;;;5.33;2.00;;;15.90;99.40;;;;;;5013499;28;20573;-80
2021/10/22 12:42:27;;;;;;;5.43;1.50;;;15.80;99.40;;;;;;5013828;28;20564;-80
2021/10/22 12:45:32;;;;;;;4.27;1.10;;;15.80;99.50;;;;;;5012999;28;20198;-80
2021/10/22 12:48:07;;;;;;;2.27;0.93;;;15.70;99.60;;;;;;4955557;28;20965;-81
2021/10/22 12:50:35;;;;;;;3.83;1.27;;;15.60;99.90;;;;;;4972596;28;20622;-80
2021/10/22 12:53:08;;;;;;;5.03;1.60;;;15.60;99.90;;;;;;4995155;28;21029;-79
2021/10/22 12:55:34;;;;;;;6.10;1.80;;;15.50;99.90;;;;;;5013123;28;20601;-80
2021/10/22 12:58:16;;;;;;;3.80;2.10;;;15.50;99.90;;;;;;5012909;28;20565;-80
2021/10/22 13:00:43;;;;;;;2.23;1.23;;;15.40;99.90;;;;;;5013262;28;20175;-80
2021/10/22 13:03:10;;;;;;;6.27;1.67;;;15.30;99.90;;;;;;5012561;28;20574;-80
2021/10/22 13:05:38;;;;;;;3.03;1.20;;;15.30;99.90;;;;;;5012822;28;20767;-81
2021/10/22 13:20:50;;;;;;;4.27;1.40;;;15.30;99.90;;;;;;5010429;28;20572;-80